sensor_id;sensor_type;location;lat;lon;timestamp;P1;durP1;ratioP1;P2;durP2;ratioP2
61531;SDS011;47397;48.194;11.632;2023-07-29T00:00:43;5.50;;;3.45;;
61531;SDS011;47397;48.194;11.632;2023-07-29T00:01:45;4.65;;;3.05;;
61531;SDS011;47397;48.194;11.632;2023-07-29T00:02:46;4.90;;;3.17;;
61531;SDS011;47397;48.194;11.632;2023-07-29T00:03:46;4.80;;;3.17;;
61531;SDS011;47397;48.194;11.632;2023-07-29T00:04:46;4.47;;;3.17;;
61531;SDS011;47397;48.194;11.632;2023-07-29T00:05:47;3.83;;;2.72;;
61531;SDS011;47397;48.194;11.632;2023-07-29T00:06:47;7.30;;;3.05;;
61531;SDS011;47397;48.194;11.632;2023-07-29T00:07:48;3.88;;;2.80;;
61531;SDS011;47397;48.194;11.632;2023-07-29T00:08:48;5.63;;;3.08;;
61531;SDS011;47397;48.194;11.632;2023-07-29T00:09:49;6.20;;;3.00;;
61531;SDS011;47397;48.194;11.632;2023-07-29T00:10:49;5.47;;;3.22;;
61531;SDS011;47397;48.194;11.632;2023-07-29T00:11:50;5.10;;;2.97;;
61531;SDS011;47397;48.194;11.632;2023-07-29T00:12:50;5.30;;;2.95;;
61531;SDS011;47397;48.194;11.632;2023-07-29T00:13:50;5.00;;;3.08;;
61531;SDS011;47397;48.194;11.632;2023-07-29T00:14:51;5.55;;;2.65;;
61531;SDS011;47397;48.194;11.632;2023-07-29T00:15:52;4.00;;;2.90;;
61531;SDS011;47397;48.194;11.632;2023-07-29T00:16:55;4.82;;;3.15;;
61531;SDS011;47397;48.194;11.632;2023-07-29T00:17:55;5.38;;;3.17;;
61531;SDS011;47397;48.194;11.632;2023-07-29T00:18:55;4.32;;;2.72;;
61531;SDS011;47397;48.194;11.632;2023-07-29T00:19:56;3.97;;;2.83;;
61531;SDS011;47397;48.194;11.632;2023-07-29T00:20:56;4.40;;;2.90;;
61531;SDS011;47397;48.194;11.632;2023-07-29T00:21:57;4.78;;;3.22;;
61531;SDS011;47397;48.194;11.632;2023-07-29T00:22:57;4.63;;;2.78;;
61531;SDS011;47397;48.194;11.632;2023-07-29T00:23:57;4.45;;;2.90;;
61531;SDS011;47397;48.194;11.632;2023-07-29T00:24:58;4.47;;;2.72;;
61531;SDS011;47397;48.194;11.632;2023-07-29T00:25:58;5.07;;;3.22;;
61531;SDS011;47397;48.194;11.632;2023-07-29T00:26:58;4.18;;;2.70;;
61531;SDS011;47397;48.194;11.632;2023-07-29T00:27:59;6.50;;;2.63;;
61531;SDS011;47397;48.194;11.632;2023-07-29T00:28:59;8.35;;;3.10;;
61531;SDS011;47397;48.194;11.632;2023-07-29T00:30:00;4.10;;;2.60;;
61531;SDS011;47397;48.194;11.632;2023-07-29T00:31:01;4.68;;;2.60;;
61531;SDS011;47397;48.194;11.632;2023-07-29T00:32:03;4.05;;;2.72;;
61531;SDS011;47397;48.194;11.632;2023-07-29T00:33:04;4.82;;;2.92;;
61531;SDS011;47397;48.194;11.632;2023-07-29T00:34:05;3.75;;;2.63;;
61531;SDS011;47397;48.194;11.632;2023-07-29T00:35:05;6.47;;;2.80;;
61531;SDS011;47397;48.194;11.632;2023-07-29T00:36:07;4.43;;;3.03;;
61531;SDS011;47397;48.194;11.632;2023-07-29T00:37:07;4.45;;;2.78;;
61531;SDS011;47397;48.194;11.632;2023-07-29T00:38:07;5.10;;;3.22;;
61531;SDS011;47397;48.194;11.632;2023-07-29T00:39:08;4.88;;;2.92;;
61531;SDS011;47397;48.194;11.632;2023-07-29T00:40:09;5.93;;;3.22;;
61531;SDS011;47397;48.194;11.632;2023-07-29T00:41:14;6.05;;;3.10;;
61531;SDS011;47397;48.194;11.632;2023-07-29T00:42:15;4.55;;;3.25;;
61531;SDS011;47397;48.194;11.632;2023-07-29T00:43:15;5.78;;;2.75;;
61531;SDS011;47397;48.194;11.632;2023-07-29T00:44:16;7.20;;;3.10;;
61531;SDS011;47397;48.194;11.632;2023-07-29T00:45:16;3.72;;;2.58;;
61531;SDS011;47397;48.194;11.632;2023-07-29T00:46:17;3.97;;;3.25;;
61531;SDS011;47397;48.194;11.632;2023-07-29T00:47:19;4.53;;;2.88;;
61531;SDS011;47397;48.194;11.632;2023-07-29T00:48:21;3.97;;;3.22;;
61531;SDS011;47397;48.194;11.632;2023-07-29T00:49:21;3.90;;;2.80;;
61531;SDS011;47397;48.194;11.632;2023-07-29T00:50:22;4.63;;;2.95;;
61531;SDS011;47397;48.194;11.632;2023-07-29T00:51:22;6.20;;;3.03;;
61531;SDS011;47397;48.194;11.632;2023-07-29T00:52:23;5.70;;;2.80;;
61531;SDS011;47397;48.194;11.632;2023-07-29T00:53:23;4.55;;;2.80;;
61531;SDS011;47397;48.194;11.632;2023-07-29T00:54:23;4.97;;;3.25;;
61531;SDS011;47397;48.194;11.632;2023-07-29T00:55:24;4.18;;;2.58;;
61531;SDS011;47397;48.194;11.632;2023-07-29T00:56:24;5.93;;;3.13;;
61531;SDS011;47397;48.194;11.632;2023-07-29T00:57:25;6.95;;;3.03;;
61531;SDS011;47397;48.194;11.632;2023-07-29T00:58:26;6.18;;;3.20;;
61531;SDS011;47397;48.194;11.632;2023-07-29T00:59:26;4.57;;;3.28;;
61531;SDS011;47397;48.194;11.632;2023-07-29T01:00:27;6.32;;;3.20;;
61531;SDS011;47397;48.194;11.632;2023-07-29T01:01:28;6.60;;;3.13;;
61531;SDS011;47397;48.194;11.632;2023-07-29T01:02:30;4.65;;;2.90;;
61531;SDS011;47397;48.194;11.632;2023-07-29T01:03:30;5.15;;;2.80;;
61531;SDS011;47397;48.194;11.632;2023-07-29T01:04:31;4.82;;;3.47;;
61531;SDS011;47397;48.194;11.632;2023-07-29T01:05:44;4.10;;;3.00;;
61531;SDS011;47397;48.194;11.632;2023-07-29T01:06:53;6.05;;;3.25;;
61531;SDS011;47397;48.194;11.632;2023-07-29T01:08:03;4.57;;;2.58;;
61531;SDS011;47397;48.194;11.632;2023-07-29T01:09:09;5.97;;;3.00;;
61531;SDS011;47397;48.194;11.632;2023-07-29T01:10:19;6.75;;;2.80;;
61531;SDS011;47397;48.194;11.632;2023-07-29T01:11:33;5.40;;;3.22;;
61531;SDS011;47397;48.194;11.632;2023-07-29T01:12:41;5.13;;;3.08;;
61531;SDS011;47397;48.194;11.632;2023-07-29T01:13:48;5.15;;;3.15;;
61531;SDS011;47397;48.194;11.632;2023-07-29T01:14:54;3.90;;;2.78;;
61531;SDS011;47397;48.194;11.632;2023-07-29T01:16:00;4.35;;;2.83;;
61531;SDS011;47397;48.194;11.632;2023-07-29T01:17:08;5.03;;;2.85;;
61531;SDS011;47397;48.194;11.632;2023-07-29T01:18:16;4.32;;;2.97;;
61531;SDS011;47397;48.194;11.632;2023-07-29T01:19:26;5.07;;;3.40;;
61531;SDS011;47397;48.194;11.632;2023-07-29T01:20:42;5.85;;;3.08;;
61531;SDS011;47397;48.194;11.632;2023-07-29T01:21:44;6.45;;;2.97;;
61531;SDS011;47397;48.194;11.632;2023-07-29T01:22:45;5.57;;;3.17;;
61531;SDS011;47397;48.194;11.632;2023-07-29T01:23:46;5.22;;;2.85;;
61531;SDS011;47397;48.194;11.632;2023-07-29T01:24:47;5.53;;;3.22;;
61531;SDS011;47397;48.194;11.632;2023-07-29T01:25:47;6.60;;;3.40;;
61531;SDS011;47397;48.194;11.632;2023-07-29T01:26:48;5.13;;;3.10;;
61531;SDS011;47397;48.194;11.632;2023-07-29T01:27:48;5.20;;;3.13;;
61531;SDS011;47397;48.194;11.632;2023-07-29T01:28:49;4.10;;;2.80;;
61531;SDS011;47397;48.194;11.632;2023-07-29T01:29:49;5.13;;;3.00;;
61531;SDS011;47397;48.194;11.632;2023-07-29T01:30:51;4.88;;;2.95;;
61531;SDS011;47397;48.194;11.632;2023-07-29T01:31:56;5.35;;;3.20;;
61531;SDS011;47397;48.194;11.632;2023-07-29T01:33:02;5.72;;;3.10;;
61531;SDS011;47397;48.194;11.632;2023-07-29T01:34:10;5.03;;;3.03;;
61531;SDS011;47397;48.194;11.632;2023-07-29T01:35:18;5.15;;;3.05;;
61531;SDS011;47397;48.194;11.632;2023-07-29T01:36:27;4.13;;;2.70;;
61531;SDS011;47397;48.194;11.632;2023-07-29T01:37:31;6.78;;;3.03;;
61531;SDS011;47397;48.194;11.632;2023-07-29T01:38:35;6.65;;;2.60;;
61531;SDS011;47397;48.194;11.632;2023-07-29T01:39:39;7.10;;;2.50;;
61531;SDS011;47397;48.194;11.632;2023-07-29T01:40:40;4.88;;;2.78;;
61531;SDS011;47397;48.194;11.632;2023-07-29T01:41:42;4.35;;;2.40;;
61531;SDS011;47397;48.194;11.632;2023-07-29T01:42:43;6.40;;;2.70;;
61531;SDS011;47397;48.194;11.632;2023-07-29T01:43:44;4.15;;;2.75;;
61531;SDS011;47397;48.194;11.632;2023-07-29T01:44:46;4.07;;;2.50;;
61531;SDS011;47397;48.194;11.632;2023-07-29T01:45:46;4.95;;;2.63;;
61531;SDS011;47397;48.194;11.632;2023-07-29T01:46:47;5.07;;;2.72;;
61531;SDS011;47397;48.194;11.632;2023-07-29T01:47:47;4.10;;;2.60;;
61531;SDS011;47397;48.194;11.632;2023-07-29T01:48:48;4.57;;;2.95;;
61531;SDS011;47397;48.194;11.632;2023-07-29T01:49:48;4.32;;;2.90;;
61531;SDS011;47397;48.194;11.632;2023-07-29T01:50:48;3.80;;;2.47;;
61531;SDS011;47397;48.194;11.632;2023-07-29T01:51:49;4.63;;;2.72;;
61531;SDS011;47397;48.194;11.632;2023-07-29T01:52:49;3.60;;;2.42;;
61531;SDS011;47397;48.194;11.632;2023-07-29T01:53:50;4.65;;;2.63;;
61531;SDS011;47397;48.194;11.632;2023-07-29T01:54:51;4.07;;;2.53;;
61531;SDS011;47397;48.194;11.632;2023-07-29T01:55:52;4.07;;;2.35;;
61531;SDS011;47397;48.194;11.632;2023-07-29T01:56:52;5.28;;;2.78;;
61531;SDS011;47397;48.194;11.632;2023-07-29T01:57:53;8.75;;;2.78;;
61531;SDS011;47397;48.194;11.632;2023-07-29T01:58:53;5.25;;;2.92;;
61531;SDS011;47397;48.194;11.632;2023-07-29T01:59:53;7.18;;;2.55;;
61531;SDS011;47397;48.194;11.632;2023-07-29T02:00:54;4.10;;;2.50;;
61531;SDS011;47397;48.194;11.632;2023-07-29T02:01:54;6.70;;;2.60;;
61531;SDS011;47397;48.194;11.632;2023-07-29T02:02:54;4.72;;;2.58;;
61531;SDS011;47397;48.194;11.632;2023-07-29T02:03:55;3.63;;;2.50;;
61531;SDS011;47397;48.194;11.632;2023-07-29T02:04:55;4.72;;;2.50;;
61531;SDS011;47397;48.194;11.632;2023-07-29T02:05:56;5.30;;;2.90;;
61531;SDS011;47397;48.194;11.632;2023-07-29T02:06:56;3.70;;;2.45;;
61531;SDS011;47397;48.194;11.632;2023-07-29T02:07:57;4.22;;;2.97;;
61531;SDS011;47397;48.194;11.632;2023-07-29T02:08:57;4.05;;;2.38;;
61531;SDS011;47397;48.194;11.632;2023-07-29T02:09:59;5.03;;;2.97;;
61531;SDS011;47397;48.194;11.632;2023-07-29T02:10:59;5.05;;;2.50;;
61531;SDS011;47397;48.194;11.632;2023-07-29T02:12:00;4.25;;;2.88;;
61531;SDS011;47397;48.194;11.632;2023-07-29T02:13:00;7.32;;;2.85;;
61531;SDS011;47397;48.194;11.632;2023-07-29T02:14:00;4.68;;;2.45;;
61531;SDS011;47397;48.194;11.632;2023-07-29T02:15:01;4.40;;;2.70;;
61531;SDS011;47397;48.194;11.632;2023-07-29T02:16:01;5.38;;;3.15;;
61531;SDS011;47397;48.194;11.632;2023-07-29T02:17:02;3.78;;;2.80;;
61531;SDS011;47397;48.194;11.632;2023-07-29T02:18:02;4.43;;;2.72;;
61531;SDS011;47397;48.194;11.632;2023-07-29T02:19:03;4.20;;;2.70;;
61531;SDS011;47397;48.194;11.632;2023-07-29T02:20:03;3.85;;;2.55;;
61531;SDS011;47397;48.194;11.632;2023-07-29T02:21:04;3.65;;;2.53;;
61531;SDS011;47397;48.194;11.632;2023-07-29T02:22:05;6.05;;;2.75;;
61531;SDS011;47397;48.194;11.632;2023-07-29T02:23:05;6.45;;;3.10;;
61531;SDS011;47397;48.194;11.632;2023-07-29T02:24:05;6.78;;;3.25;;
61531;SDS011;47397;48.194;11.632;2023-07-29T02:25:07;4.32;;;2.75;;
61531;SDS011;47397;48.194;11.632;2023-07-29T02:26:08;5.20;;;3.00;;
61531;SDS011;47397;48.194;11.632;2023-07-29T02:27:08;6.35;;;2.95;;
61531;SDS011;47397;48.194;11.632;2023-07-29T02:28:09;5.45;;;2.70;;
61531;SDS011;47397;48.194;11.632;2023-07-29T02:29:09;4.63;;;2.75;;
61531;SDS011;47397;48.194;11.632;2023-07-29T02:30:10;4.28;;;2.58;;
61531;SDS011;47397;48.194;11.632;2023-07-29T02:31:13;4.72;;;2.58;;
61531;SDS011;47397;48.194;11.632;2023-07-29T02:32:15;4.95;;;2.85;;
61531;SDS011;47397;48.194;11.632;2023-07-29T02:33:16;6.00;;;2.70;;
61531;SDS011;47397;48.194;11.632;2023-07-29T02:34:16;5.22;;;2.65;;
61531;SDS011;47397;48.194;11.632;2023-07-29T02:35:17;5.13;;;2.40;;
61531;SDS011;47397;48.194;11.632;2023-07-29T02:36:17;4.22;;;2.55;;
61531;SDS011;47397;48.194;11.632;2023-07-29T02:37:18;3.88;;;2.47;;
61531;SDS011;47397;48.194;11.632;2023-07-29T02:38:18;4.60;;;2.58;;
61531;SDS011;47397;48.194;11.632;2023-07-29T02:39:19;4.22;;;2.30;;
61531;SDS011;47397;48.194;11.632;2023-07-29T02:40:20;5.50;;;2.55;;
61531;SDS011;47397;48.194;11.632;2023-07-29T02:41:21;4.00;;;2.60;;
61531;SDS011;47397;48.194;11.632;2023-07-29T02:42:21;3.90;;;2.65;;
61531;SDS011;47397;48.194;11.632;2023-07-29T02:43:21;3.42;;;2.00;;
61531;SDS011;47397;48.194;11.632;2023-07-29T02:44:22;6.22;;;2.70;;
61531;SDS011;47397;48.194;11.632;2023-07-29T02:45:22;3.80;;;2.63;;
61531;SDS011;47397;48.194;11.632;2023-07-29T02:46:23;4.43;;;2.30;;
61531;SDS011;47397;48.194;11.632;2023-07-29T02:47:23;4.57;;;2.85;;
61531;SDS011;47397;48.194;11.632;2023-07-29T02:48:24;3.72;;;2.50;;
61531;SDS011;47397;48.194;11.632;2023-07-29T02:49:25;5.05;;;2.63;;
61531;SDS011;47397;48.194;11.632;2023-07-29T02:50:25;4.00;;;2.30;;
61531;SDS011;47397;48.194;11.632;2023-07-29T02:51:25;4.85;;;2.65;;
61531;SDS011;47397;48.194;11.632;2023-07-29T02:52:26;5.15;;;2.65;;
61531;SDS011;47397;48.194;11.632;2023-07-29T02:53:26;5.95;;;2.65;;
61531;SDS011;47397;48.194;11.632;2023-07-29T02:54:27;4.78;;;2.42;;
61531;SDS011;47397;48.194;11.632;2023-07-29T02:55:28;3.97;;;2.58;;
61531;SDS011;47397;48.194;11.632;2023-07-29T02:56:29;4.10;;;2.63;;
61531;SDS011;47397;48.194;11.632;2023-07-29T02:57:29;5.15;;;2.67;;
61531;SDS011;47397;48.194;11.632;2023-07-29T02:58:29;4.40;;;2.88;;
61531;SDS011;47397;48.194;11.632;2023-07-29T02:59:30;4.00;;;2.65;;
61531;SDS011;47397;48.194;11.632;2023-07-29T03:00:30;6.47;;;2.47;;
61531;SDS011;47397;48.194;11.632;2023-07-29T03:01:31;4.68;;;2.22;;
61531;SDS011;47397;48.194;11.632;2023-07-29T03:02:32;4.45;;;2.42;;
61531;SDS011;47397;48.194;11.632;2023-07-29T03:03:32;4.68;;;2.70;;
61531;SDS011;47397;48.194;11.632;2023-07-29T03:04:33;6.70;;;2.85;;
61531;SDS011;47397;48.194;11.632;2023-07-29T03:05:33;4.30;;;2.60;;
61531;SDS011;47397;48.194;11.632;2023-07-29T03:06:34;4.13;;;2.58;;
61531;SDS011;47397;48.194;11.632;2023-07-29T03:07:34;6.30;;;2.58;;
61531;SDS011;47397;48.194;11.632;2023-07-29T03:08:34;4.22;;;2.45;;
61531;SDS011;47397;48.194;11.632;2023-07-29T03:09:36;6.50;;;3.00;;
61531;SDS011;47397;48.194;11.632;2023-07-29T03:10:37;8.38;;;2.92;;
61531;SDS011;47397;48.194;11.632;2023-07-29T03:11:38;6.72;;;2.83;;
61531;SDS011;47397;48.194;11.632;2023-07-29T03:12:38;6.05;;;2.70;;
61531;SDS011;47397;48.194;11.632;2023-07-29T03:13:39;5.07;;;2.47;;
61531;SDS011;47397;48.194;11.632;2023-07-29T03:14:39;5.20;;;3.20;;
61531;SDS011;47397;48.194;11.632;2023-07-29T03:15:40;5.97;;;2.90;;
61531;SDS011;47397;48.194;11.632;2023-07-29T03:16:40;7.45;;;3.17;;
61531;SDS011;47397;48.194;11.632;2023-07-29T03:17:40;5.25;;;2.72;;
61531;SDS011;47397;48.194;11.632;2023-07-29T03:18:41;5.43;;;3.00;;
61531;SDS011;47397;48.194;11.632;2023-07-29T03:19:43;4.63;;;2.85;;
61531;SDS011;47397;48.194;11.632;2023-07-29T03:20:43;5.55;;;2.78;;
61531;SDS011;47397;48.194;11.632;2023-07-29T03:21:43;5.75;;;3.13;;
61531;SDS011;47397;48.194;11.632;2023-07-29T03:22:44;4.70;;;2.70;;
61531;SDS011;47397;48.194;11.632;2023-07-29T03:23:44;3.88;;;2.70;;
61531;SDS011;47397;48.194;11.632;2023-07-29T03:24:45;6.45;;;2.75;;
61531;SDS011;47397;48.194;11.632;2023-07-29T03:25:49;6.57;;;2.75;;
61531;SDS011;47397;48.194;11.632;2023-07-29T03:26:49;7.18;;;3.20;;
61531;SDS011;47397;48.194;11.632;2023-07-29T03:27:50;4.70;;;2.53;;
61531;SDS011;47397;48.194;11.632;2023-07-29T03:28:50;4.35;;;2.80;;
61531;SDS011;47397;48.194;11.632;2023-07-29T03:29:50;5.80;;;2.83;;
61531;SDS011;47397;48.194;11.632;2023-07-29T03:30:51;5.00;;;2.67;;
61531;SDS011;47397;48.194;11.632;2023-07-29T03:31:51;4.53;;;2.67;;
61531;SDS011;47397;48.194;11.632;2023-07-29T03:32:52;4.63;;;2.83;;
61531;SDS011;47397;48.194;11.632;2023-07-29T03:33:52;6.13;;;2.70;;
61531;SDS011;47397;48.194;11.632;2023-07-29T03:34:53;4.68;;;2.60;;
61531;SDS011;47397;48.194;11.632;2023-07-29T03:35:53;4.45;;;2.70;;
61531;SDS011;47397;48.194;11.632;2023-07-29T03:36:53;6.82;;;2.88;;
61531;SDS011;47397;48.194;11.632;2023-07-29T03:37:54;7.28;;;3.15;;
61531;SDS011;47397;48.194;11.632;2023-07-29T03:38:54;5.60;;;2.80;;
61531;SDS011;47397;48.194;11.632;2023-07-29T03:39:54;7.07;;;3.25;;
61531;SDS011;47397;48.194;11.632;2023-07-29T03:40:56;7.53;;;2.90;;
61531;SDS011;47397;48.194;11.632;2023-07-29T03:41:57;11.38;;;3.28;;
61531;SDS011;47397;48.194;11.632;2023-07-29T03:42:57;5.97;;;2.70;;
61531;SDS011;47397;48.194;11.632;2023-07-29T03:43:58;4.13;;;2.60;;
61531;SDS011;47397;48.194;11.632;2023-07-29T03:44:58;5.75;;;3.00;;
61531;SDS011;47397;48.194;11.632;2023-07-29T03:45:59;4.22;;;2.70;;
61531;SDS011;47397;48.194;11.632;2023-07-29T03:47:00;5.03;;;2.70;;
61531;SDS011;47397;48.194;11.632;2023-07-29T03:48:01;5.32;;;2.75;;
61531;SDS011;47397;48.194;11.632;2023-07-29T03:49:02;4.07;;;2.90;;
61531;SDS011;47397;48.194;11.632;2023-07-29T03:50:02;5.93;;;2.72;;
61531;SDS011;47397;48.194;11.632;2023-07-29T03:51:03;4.70;;;2.67;;
61531;SDS011;47397;48.194;11.632;2023-07-29T03:52:04;5.30;;;2.78;;
61531;SDS011;47397;48.194;11.632;2023-07-29T03:53:05;4.25;;;2.65;;
61531;SDS011;47397;48.194;11.632;2023-07-29T03:54:05;4.80;;;2.85;;
61531;SDS011;47397;48.194;11.632;2023-07-29T03:55:06;6.93;;;3.03;;
61531;SDS011;47397;48.194;11.632;2023-07-29T03:56:09;4.90;;;2.92;;
61531;SDS011;47397;48.194;11.632;2023-07-29T03:57:09;5.63;;;2.78;;
61531;SDS011;47397;48.194;11.632;2023-07-29T03:58:09;5.57;;;2.55;;
61531;SDS011;47397;48.194;11.632;2023-07-29T03:59:10;6.72;;;2.80;;
61531;SDS011;47397;48.194;11.632;2023-07-29T04:00:10;4.88;;;3.08;;
61531;SDS011;47397;48.194;11.632;2023-07-29T04:01:11;6.93;;;2.60;;
61531;SDS011;47397;48.194;11.632;2023-07-29T04:02:11;5.78;;;2.95;;
61531;SDS011;47397;48.194;11.632;2023-07-29T04:03:11;4.43;;;2.72;;
61531;SDS011;47397;48.194;11.632;2023-07-29T04:04:12;4.30;;;2.90;;
61531;SDS011;47397;48.194;11.632;2023-07-29T04:05:12;4.47;;;2.63;;
61531;SDS011;47397;48.194;11.632;2023-07-29T04:06:13;5.43;;;2.53;;
61531;SDS011;47397;48.194;11.632;2023-07-29T04:07:13;6.00;;;2.70;;
61531;SDS011;47397;48.194;11.632;2023-07-29T04:08:14;5.97;;;3.00;;
61531;SDS011;47397;48.194;11.632;2023-07-29T04:09:14;6.10;;;2.80;;
61531;SDS011;47397;48.194;11.632;2023-07-29T04:10:15;5.47;;;2.60;;
61531;SDS011;47397;48.194;11.632;2023-07-29T04:11:16;7.10;;;2.92;;
61531;SDS011;47397;48.194;11.632;2023-07-29T04:12:17;5.20;;;2.53;;
61531;SDS011;47397;48.194;11.632;2023-07-29T04:13:17;6.75;;;2.92;;
61531;SDS011;47397;48.194;11.632;2023-07-29T04:14:18;7.63;;;3.30;;
61531;SDS011;47397;48.194;11.632;2023-07-29T04:15:18;8.95;;;2.97;;
61531;SDS011;47397;48.194;11.632;2023-07-29T04:16:19;6.28;;;3.22;;
61531;SDS011;47397;48.194;11.632;2023-07-29T04:17:19;4.40;;;2.95;;
61531;SDS011;47397;48.194;11.632;2023-07-29T04:18:19;4.47;;;2.50;;
61531;SDS011;47397;48.194;11.632;2023-07-29T04:19:20;4.20;;;2.80;;
61531;SDS011;47397;48.194;11.632;2023-07-29T04:20:20;5.13;;;2.47;;
61531;SDS011;47397;48.194;11.632;2023-07-29T04:21:21;6.63;;;3.17;;
61531;SDS011;47397;48.194;11.632;2023-07-29T04:22:21;6.43;;;2.95;;
61531;SDS011;47397;48.194;11.632;2023-07-29T04:23:21;6.30;;;3.03;;
61531;SDS011;47397;48.194;11.632;2023-07-29T04:25:47;5.90;;;2.58;;
61531;SDS011;47397;48.194;11.632;2023-07-29T04:26:49;7.20;;;2.88;;
61531;SDS011;47397;48.194;11.632;2023-07-29T04:27:49;7.95;;;2.97;;
61531;SDS011;47397;48.194;11.632;2023-07-29T04:28:49;3.88;;;2.28;;
61531;SDS011;47397;48.194;11.632;2023-07-29T04:29:50;8.32;;;2.70;;
61531;SDS011;47397;48.194;11.632;2023-07-29T04:30:50;5.07;;;2.58;;
61531;SDS011;47397;48.194;11.632;2023-07-29T04:31:51;4.82;;;2.72;;
61531;SDS011;47397;48.194;11.632;2023-07-29T04:32:51;4.82;;;2.67;;
61531;SDS011;47397;48.194;11.632;2023-07-29T04:33:52;5.85;;;2.53;;
61531;SDS011;47397;48.194;11.632;2023-07-29T04:34:52;4.28;;;2.50;;
61531;SDS011;47397;48.194;11.632;2023-07-29T04:35:52;4.10;;;2.67;;
61531;SDS011;47397;48.194;11.632;2023-07-29T04:36:53;4.50;;;2.42;;
61531;SDS011;47397;48.194;11.632;2023-07-29T04:37:53;6.68;;;2.70;;
61531;SDS011;47397;48.194;11.632;2023-07-29T04:38:54;4.40;;;2.88;;
61531;SDS011;47397;48.194;11.632;2023-07-29T04:39:54;5.57;;;2.65;;
61531;SDS011;47397;48.194;11.632;2023-07-29T04:40:54;4.78;;;2.38;;
61531;SDS011;47397;48.194;11.632;2023-07-29T04:41:56;3.25;;;2.25;;
61531;SDS011;47397;48.194;11.632;2023-07-29T04:42:56;4.18;;;2.42;;
61531;SDS011;47397;48.194;11.632;2023-07-29T04:43:57;4.07;;;2.70;;
61531;SDS011;47397;48.194;11.632;2023-07-29T04:44:57;5.35;;;2.80;;
61531;SDS011;47397;48.194;11.632;2023-07-29T04:45:58;4.45;;;2.45;;
61531;SDS011;47397;48.194;11.632;2023-07-29T04:46:58;4.82;;;2.50;;
61531;SDS011;47397;48.194;11.632;2023-07-29T04:47:59;4.55;;;2.58;;
61531;SDS011;47397;48.194;11.632;2023-07-29T04:48:59;3.97;;;2.25;;
61531;SDS011;47397;48.194;11.632;2023-07-29T04:50:00;3.65;;;2.30;;
61531;SDS011;47397;48.194;11.632;2023-07-29T04:51:00;5.03;;;2.47;;
61531;SDS011;47397;48.194;11.632;2023-07-29T04:52:00;5.20;;;2.55;;
61531;SDS011;47397;48.194;11.632;2023-07-29T04:53:01;3.85;;;2.20;;
61531;SDS011;47397;48.194;11.632;2023-07-29T04:54:01;4.63;;;2.30;;
61531;SDS011;47397;48.194;11.632;2023-07-29T04:55:02;4.63;;;2.50;;
61531;SDS011;47397;48.194;11.632;2023-07-29T04:56:02;4.22;;;2.30;;
61531;SDS011;47397;48.194;11.632;2023-07-29T04:57:05;5.78;;;2.70;;
61531;SDS011;47397;48.194;11.632;2023-07-29T04:58:05;4.35;;;2.10;;
61531;SDS011;47397;48.194;11.632;2023-07-29T04:59:05;3.38;;;2.38;;
61531;SDS011;47397;48.194;11.632;2023-07-29T05:00:06;5.40;;;2.45;;
61531;SDS011;47397;48.194;11.632;2023-07-29T05:01:07;4.03;;;2.53;;
61531;SDS011;47397;48.194;11.632;2023-07-29T05:02:07;4.35;;;2.50;;
61531;SDS011;47397;48.194;11.632;2023-07-29T05:03:08;6.15;;;2.50;;
61531;SDS011;47397;48.194;11.632;2023-07-29T05:04:08;3.42;;;2.47;;
61531;SDS011;47397;48.194;11.632;2023-07-29T05:05:09;3.50;;;2.30;;
61531;SDS011;47397;48.194;11.632;2023-07-29T05:06:09;4.15;;;2.22;;
61531;SDS011;47397;48.194;11.632;2023-07-29T05:07:10;4.35;;;2.25;;
61531;SDS011;47397;48.194;11.632;2023-07-29T05:08:10;4.97;;;2.35;;
61531;SDS011;47397;48.194;11.632;2023-07-29T05:09:14;5.05;;;2.33;;
61531;SDS011;47397;48.194;11.632;2023-07-29T05:10:15;3.92;;;2.63;;
61531;SDS011;47397;48.194;11.632;2023-07-29T05:11:15;4.43;;;2.25;;
61531;SDS011;47397;48.194;11.632;2023-07-29T05:12:17;5.15;;;2.33;;
61531;SDS011;47397;48.194;11.632;2023-07-29T05:13:17;4.30;;;2.50;;
61531;SDS011;47397;48.194;11.632;2023-07-29T05:14:18;3.45;;;2.30;;
61531;SDS011;47397;48.194;11.632;2023-07-29T05:15:19;5.25;;;2.47;;
61531;SDS011;47397;48.194;11.632;2023-07-29T05:16:19;3.42;;;2.28;;
61531;SDS011;47397;48.194;11.632;2023-07-29T05:17:21;4.07;;;2.28;;
61531;SDS011;47397;48.194;11.632;2023-07-29T05:18:21;4.25;;;2.08;;
61531;SDS011;47397;48.194;11.632;2023-07-29T05:19:22;3.67;;;2.33;;
61531;SDS011;47397;48.194;11.632;2023-07-29T05:20:22;3.97;;;2.30;;
61531;SDS011;47397;48.194;11.632;2023-07-29T05:21:23;3.97;;;2.40;;
61531;SDS011;47397;48.194;11.632;2023-07-29T05:22:23;3.13;;;2.00;;
61531;SDS011;47397;48.194;11.632;2023-07-29T05:23:23;4.20;;;2.33;;
61531;SDS011;47397;48.194;11.632;2023-07-29T05:24:24;3.95;;;2.33;;
61531;SDS011;47397;48.194;11.632;2023-07-29T05:25:24;3.72;;;1.92;;
61531;SDS011;47397;48.194;11.632;2023-07-29T05:26:25;3.13;;;2.13;;
61531;SDS011;47397;48.194;11.632;2023-07-29T05:27:26;3.78;;;2.20;;
61531;SDS011;47397;48.194;11.632;2023-07-29T05:28:27;4.65;;;2.42;;
61531;SDS011;47397;48.194;11.632;2023-07-29T05:29:27;5.03;;;2.03;;
61531;SDS011;47397;48.194;11.632;2023-07-29T05:30:28;3.33;;;1.88;;
61531;SDS011;47397;48.194;11.632;2023-07-29T05:31:28;3.80;;;2.03;;
61531;SDS011;47397;48.194;11.632;2023-07-29T05:32:29;2.70;;;1.98;;
61531;SDS011;47397;48.194;11.632;2023-07-29T05:33:29;3.42;;;2.33;;
61531;SDS011;47397;48.194;11.632;2023-07-29T05:34:29;4.35;;;2.08;;
61531;SDS011;47397;48.194;11.632;2023-07-29T05:35:30;2.95;;;1.90;;
61531;SDS011;47397;48.194;11.632;2023-07-29T05:36:30;4.00;;;2.00;;
61531;SDS011;47397;48.194;11.632;2023-07-29T05:37:31;2.75;;;1.77;;
61531;SDS011;47397;48.194;11.632;2023-07-29T05:38:31;4.95;;;2.10;;
61531;SDS011;47397;48.194;11.632;2023-07-29T05:39:31;3.75;;;1.80;;
61531;SDS011;47397;48.194;11.632;2023-07-29T05:40:32;3.05;;;2.08;;
61531;SDS011;47397;48.194;11.632;2023-07-29T05:41:32;3.25;;;1.75;;
61531;SDS011;47397;48.194;11.632;2023-07-29T05:42:34;2.88;;;1.98;;
61531;SDS011;47397;48.194;11.632;2023-07-29T05:43:34;3.58;;;1.85;;
61531;SDS011;47397;48.194;11.632;2023-07-29T05:44:35;4.70;;;2.35;;
61531;SDS011;47397;48.194;11.632;2023-07-29T05:45:35;3.17;;;1.95;;
61531;SDS011;47397;48.194;11.632;2023-07-29T05:46:36;3.85;;;1.90;;
61531;SDS011;47397;48.194;11.632;2023-07-29T05:47:36;3.13;;;2.20;;
61531;SDS011;47397;48.194;11.632;2023-07-29T05:48:37;3.00;;;1.90;;
61531;SDS011;47397;48.194;11.632;2023-07-29T05:49:37;3.58;;;2.05;;
61531;SDS011;47397;48.194;11.632;2023-07-29T05:50:37;3.25;;;1.73;;
61531;SDS011;47397;48.194;11.632;2023-07-29T05:51:38;4.00;;;2.00;;
61531;SDS011;47397;48.194;11.632;2023-07-29T05:52:38;3.78;;;1.90;;
61531;SDS011;47397;48.194;11.632;2023-07-29T05:53:38;3.53;;;2.20;;
61531;SDS011;47397;48.194;11.632;2023-07-29T05:54:39;3.05;;;1.80;;
61531;SDS011;47397;48.194;11.632;2023-07-29T05:55:39;3.90;;;1.90;;
61531;SDS011;47397;48.194;11.632;2023-07-29T05:56:40;2.92;;;2.03;;
61531;SDS011;47397;48.194;11.632;2023-07-29T05:57:42;3.85;;;1.98;;
61531;SDS011;47397;48.194;11.632;2023-07-29T05:58:42;4.05;;;1.80;;
61531;SDS011;47397;48.194;11.632;2023-07-29T05:59:42;3.47;;;2.00;;
61531;SDS011;47397;48.194;11.632;2023-07-29T06:00:43;3.05;;;1.88;;
61531;SDS011;47397;48.194;11.632;2023-07-29T06:01:43;4.45;;;2.10;;
61531;SDS011;47397;48.194;11.632;2023-07-29T06:02:44;3.28;;;2.17;;
61531;SDS011;47397;48.194;11.632;2023-07-29T06:03:44;3.00;;;1.80;;